createdAt,value
2022-08-01T00:04:46.317Z,3.72
2022-08-01T00:09:36.016Z,3.60
2022-08-01T00:14:32.136Z,2.55
2022-08-01T00:19:25.130Z,3.60
2022-08-01T00:24:15.419Z,2.20
2022-08-01T00:29:11.573Z,3.30
2022-08-01T00:34:16.027Z,2.33
2022-08-01T00:39:08.216Z,2.65
2022-08-01T00:43:58.121Z,1.80
2022-08-01T00:48:48.056Z,1.92
2022-08-01T00:53:50.765Z,2.05
2022-08-01T00:58:44.828Z,2.47
2022-08-01T01:03:57.494Z,2.60
2022-08-01T01:08:50.958Z,1.80
2022-08-01T01:13:50.094Z,2.30
2022-08-01T01:18:47.696Z,2.40
2022-08-01T01:23:57.775Z,2.73
2022-08-01T01:29:04.990Z,2.83
2022-08-01T01:33:56.834Z,3.05
2022-08-01T01:38:50.764Z,2.50
2022-08-01T01:43:41.587Z,2.53
2022-08-01T01:48:35.681Z,4.80
2022-08-01T01:53:26.559Z,3.03
2022-08-01T01:58:18.079Z,2.87
2022-08-01T02:03:11.347Z,2.22
2022-08-01T02:08:06.209Z,2.80
2022-08-01T02:12:57.121Z,2.67
2022-08-01T02:17:51.078Z,2.88
2022-08-01T02:22:46.231Z,2.92
2022-08-01T02:27:44.268Z,2.00
2022-08-01T02:32:38.484Z,2.72
2022-08-01T02:37:30.574Z,1.95
2022-08-01T02:42:22.684Z,2.58
2022-08-01T02:47:14.912Z,1.80
2022-08-01T02:52:08.221Z,2.20
2022-08-01T02:57:01.424Z,1.85
2022-08-01T03:01:55.206Z,1.00
2022-08-01T03:06:49.617Z,1.35
2022-08-01T03:11:42.203Z,2.10
2022-08-01T03:16:33.684Z,1.42
2022-08-01T03:21:25.671Z,1.30
2022-08-01T03:26:18.330Z,1.30
2022-08-01T03:31:08.973Z,1.55
2022-08-01T03:35:59.516Z,1.20
2022-08-01T03:40:53.555Z,1.60
2022-08-01T03:45:50.415Z,2.47
2022-08-01T03:50:43.300Z,2.40
2022-08-01T03:55:34.167Z,2.05
2022-08-01T04:00:24.364Z,1.50
2022-08-01T04:05:17.175Z,2.05
2022-08-01T04:10:07.973Z,3.30
2022-08-01T04:14:57.757Z,2.50
2022-08-01T04:19:48.686Z,2.00
2022-08-01T04:24:41.071Z,1.40
2022-08-01T04:29:33.777Z,2.45
2022-08-01T04:34:26.816Z,1.98
2022-08-01T04:39:18.059Z,2.28
2022-08-01T04:44:12.880Z,1.60
2022-08-01T04:49:03.678Z,1.17
2022-08-01T04:53:58.168Z,1.90
2022-08-01T04:58:48.609Z,0.83
2022-08-01T05:03:45.122Z,0.73
2022-08-01T05:08:34.920Z,0.88
2022-08-01T05:13:28.428Z,1.40
2022-08-01T05:18:18.291Z,0.30
2022-08-01T05:23:42.456Z,0.30
2022-08-01T05:28:35.782Z,0.77
2022-08-01T05:33:26.752Z,0.38
2022-08-01T05:38:16.414Z,0.70
2022-08-01T05:43:08.921Z,0.90
2022-08-01T05:47:58.527Z,2.65
2022-08-01T05:52:48.234Z,0.85
2022-08-01T05:57:39.172Z,0.40
2022-08-01T06:02:33.285Z,0.60
2022-08-01T06:07:23.075Z,0.60
2022-08-01T06:12:12.953Z,0.60
2022-08-01T06:17:02.576Z,1.10
2022-08-01T06:21:54.771Z,0.63
2022-08-01T06:26:44.468Z,1.03
2022-08-01T06:31:34.988Z,2.40
2022-08-01T06:36:24.653Z,0.70
2022-08-01T06:41:16.842Z,1.20
2022-08-01T06:46:06.537Z,0.80
2022-08-01T06:51:09.192Z,1.00
2022-08-01T06:55:58.946Z,0.95
2022-08-01T07:00:55.933Z,0.70
2022-08-01T07:05:47.214Z,0.93
2022-08-01T07:10:36.942Z,0.40
2022-08-01T07:15:27.690Z,1.00
2022-08-01T07:20:20.083Z,0.90
2022-08-01T07:25:11.546Z,1.30
2022-08-01T07:30:01.411Z,2.50
2022-08-01T07:34:51.080Z,2.87
2022-08-01T07:39:43.246Z,3.25
2022-08-01T07:44:32.936Z,1.40
2022-08-01T07:49:22.876Z,1.65
2022-08-01T07:54:12.620Z,1.00
2022-08-01T07:59:05.192Z,2.75
2022-08-01T08:03:54.912Z,1.90
2022-08-01T08:08:47.065Z,2.25
2022-08-01T08:13:36.773Z,4.25
2022-08-01T08:18:29.064Z,6.72
2022-08-01T08:23:42.519Z,5.97
2022-08-01T08:28:33.339Z,7.80
2022-08-01T08:33:23.003Z,9.27
2022-08-01T08:38:18.139Z,10.90
2022-08-01T08:43:09.413Z,11.53
2022-08-01T08:48:00.545Z,12.52
2022-08-01T08:52:50.809Z,12.35
2022-08-01T08:57:44.675Z,11.70
2022-08-01T09:02:34.367Z,8.35
2022-08-01T09:07:26.518Z,10.70
2022-08-01T09:12:20.522Z,15.50
2022-08-01T09:17:14.084Z,11.50
2022-08-01T09:22:07.211Z,8.87
2022-08-01T09:26:57.599Z,12.50
2022-08-01T09:31:48.551Z,11.57
2022-08-01T09:37:05.699Z,7.90
2022-08-01T09:41:59.228Z,7.85
2022-08-01T09:46:56.490Z,6.55
2022-08-01T09:51:59.157Z,5.87
2022-08-01T09:56:53.001Z,4.45
2022-08-01T10:01:50.651Z,6.88
2022-08-01T10:06:40.976Z,4.50
2022-08-01T10:11:36.226Z,6.70
2022-08-01T10:16:30.851Z,4.28
2022-08-01T10:21:56.202Z,6.00
2022-08-01T10:26:35.865Z,5.07
2022-08-01T10:31:34.490Z,3.33
2022-08-01T10:36:25.987Z,3.90
2022-08-01T10:41:18.338Z,3.65
2022-08-01T10:46:09.492Z,2.95
2022-08-01T10:51:17.768Z,2.38
2022-08-01T10:56:13.160Z,2.85
2022-08-01T11:01:37.394Z,3.67
2022-08-01T11:06:44.487Z,6.27
2022-08-01T11:11:37.255Z,3.27
2022-08-01T11:16:32.372Z,3.93
2022-08-01T11:21:58.590Z,2.25
2022-08-01T11:26:37.391Z,3.87
2022-08-01T11:31:37.207Z,3.10
2022-08-01T11:36:55.974Z,2.47
2022-08-01T11:41:41.642Z,2.90
2022-08-01T11:47:01.240Z,3.28
2022-08-01T11:51:50.909Z,3.10
2022-08-01T11:56:46.470Z,3.72
2022-08-01T12:01:38.289Z,3.20
2022-08-01T12:06:31.567Z,2.92
2022-08-01T12:11:22.128Z,2.72
2022-08-01T12:16:16.295Z,5.80
2022-08-01T12:21:07.996Z,1.92
2022-08-01T12:25:57.845Z,4.33
2022-08-01T12:30:51.365Z,3.45
2022-08-01T12:35:45.956Z,4.37
2022-08-01T12:40:40.833Z,3.25
2022-08-01T12:45:37.786Z,2.92
2022-08-01T12:50:31.567Z,3.37
2022-08-01T12:55:34.154Z,2.92
2022-08-01T13:00:26.424Z,4.72
2022-08-01T13:05:17.248Z,2.63
2022-08-01T13:10:08.643Z,2.58
2022-08-01T13:15:01.186Z,3.67
2022-08-01T13:19:56.250Z,1.70
2022-08-01T13:24:50.535Z,2.38
2022-08-01T13:29:42.682Z,3.17
2022-08-01T13:34:38.990Z,4.73
2022-08-01T13:39:41.126Z,4.88
2022-08-01T13:44:30.789Z,3.28
2022-08-01T13:49:23.315Z,2.92
2022-08-01T13:54:15.680Z,1.52
2022-08-01T13:59:05.369Z,2.28
2022-08-01T14:03:55.583Z,2.63
2022-08-01T14:08:46.102Z,2.10
2022-08-01T14:13:46.749Z,2.17
2022-08-01T14:18:36.961Z,2.03
2022-08-01T14:23:27.810Z,3.10
2022-08-01T14:28:17.843Z,1.60
2022-08-01T14:33:11.909Z,2.97
2022-08-01T14:38:01.503Z,2.50
2022-08-01T14:42:51.189Z,3.20
2022-08-01T14:47:41.773Z,2.33
2022-08-01T14:52:34.675Z,1.30
2022-08-01T14:57:24.557Z,1.90
2022-08-01T15:02:17.937Z,1.83
2022-08-01T15:07:07.682Z,1.93
2022-08-01T15:12:11.453Z,1.30
2022-08-01T15:17:01.185Z,2.78
2022-08-01T15:21:50.815Z,1.33
2022-08-01T15:26:40.661Z,2.17
2022-08-01T15:31:32.894Z,2.30
2022-08-01T15:36:25.710Z,2.30
2022-08-01T15:41:16.539Z,2.65
2022-08-01T15:46:08.063Z,2.25
2022-08-01T15:51:02.106Z,2.07
2022-08-01T15:56:01.998Z,1.97
2022-08-01T16:00:51.781Z,2.55
2022-08-01T16:05:44.110Z,1.60
2022-08-01T16:10:37.288Z,2.30
2022-08-01T16:15:31.283Z,3.38
2022-08-01T16:20:26.733Z,2.77
2022-08-01T16:25:17.635Z,3.03
2022-08-01T16:30:11.404Z,1.90
2022-08-01T16:35:01.248Z,3.43
2022-08-01T16:39:51.425Z,2.67
2022-08-01T16:44:41.576Z,6.18
2022-08-01T16:49:34.366Z,3.03
2022-08-01T16:54:26.010Z,1.73
2022-08-01T16:59:16.319Z,3.80
2022-08-01T17:04:06.028Z,3.87
2022-08-01T17:08:58.566Z,1.75
2022-08-01T17:13:48.960Z,1.93
2022-08-01T17:18:39.092Z,1.73
2022-08-01T17:23:28.830Z,3.20
2022-08-01T17:28:23.129Z,1.47
2022-08-01T17:33:12.999Z,2.13
2022-08-01T17:38:05.818Z,2.35
2022-08-01T17:42:57.754Z,2.10
2022-08-01T17:47:51.143Z,1.98
2022-08-01T17:52:46.999Z,1.60
2022-08-01T17:57:39.532Z,0.80
2022-08-01T18:02:31.857Z,1.38
2022-08-01T18:08:00.404Z,0.90
2022-08-01T18:12:35.656Z,1.55
2022-08-01T18:17:27.122Z,1.77
2022-08-01T18:22:32.911Z,0.87
2022-08-01T18:28:22.676Z,1.40
2022-08-01T18:32:38.520Z,1.20
2022-08-01T18:37:29.339Z,1.60
2022-08-01T18:42:29.469Z,2.15
2022-08-01T18:47:19.353Z,1.83
2022-08-01T18:52:09.010Z,3.67
2022-08-01T18:56:58.827Z,2.03
2022-08-01T19:01:51.813Z,1.30
2022-08-01T19:06:42.272Z,1.23
2022-08-01T19:11:36.728Z,0.80
2022-08-01T19:16:35.202Z,1.52
2022-08-01T19:21:44.934Z,0.90
2022-08-01T19:26:40.756Z,0.90
2022-08-01T19:31:37.405Z,0.65
2022-08-01T19:36:31.629Z,0.60
2022-08-01T19:41:26.485Z,1.00
2022-08-01T19:46:18.485Z,0.97
2022-08-01T19:51:09.953Z,1.10
2022-08-01T19:56:09.051Z,0.70
2022-08-01T20:01:03.295Z,0.70
2022-08-01T20:05:56.401Z,1.30
2022-08-01T20:10:54.952Z,1.07
2022-08-01T20:15:59.223Z,1.27
2022-08-01T20:20:51.605Z,1.63
2022-08-01T20:25:43.678Z,1.02
2022-08-01T20:30:35.433Z,1.23
2022-08-01T20:35:52.111Z,2.10
2022-08-01T20:40:38.950Z,0.90
2022-08-01T20:45:31.346Z,0.90
2022-08-01T20:50:54.174Z,0.75
2022-08-01T20:55:57.265Z,1.52
2022-08-01T21:00:57.116Z,1.00
2022-08-01T21:05:55.898Z,0.95
2022-08-01T21:10:58.384Z,1.05
2022-08-01T21:16:07.475Z,0.60
2022-08-01T21:21:07.753Z,0.70
2022-08-01T21:26:03.562Z,0.90
2022-08-01T21:30:59.580Z,0.90
2022-08-01T21:35:52.399Z,1.67
2022-08-01T21:40:42.166Z,1.73
2022-08-01T21:45:34.475Z,1.80
2022-08-01T21:50:24.909Z,1.03
2022-08-01T21:55:35.236Z,1.92
2022-08-01T22:00:26.390Z,0.70
2022-08-01T22:05:19.859Z,0.77
2022-08-01T22:10:16.539Z,3.03
2022-08-01T22:15:08.419Z,0.67
2022-08-01T22:19:58.764Z,1.70
2022-08-01T22:24:53.332Z,2.15
2022-08-01T22:29:43.249Z,1.30
2022-08-01T22:34:33.845Z,2.25
2022-08-01T22:39:24.447Z,1.33
2022-08-01T22:44:17.954Z,1.83
2022-08-01T22:49:28.458Z,1.55
2022-08-01T22:54:23.528Z,1.42
2022-08-01T22:59:19.164Z,2.20
2022-08-01T23:04:14.900Z,1.50
2022-08-01T23:09:06.156Z,2.75
2022-08-01T23:13:56.518Z,1.85
2022-08-01T23:18:49.496Z,2.10
2022-08-01T23:23:40.803Z,2.87
2022-08-01T23:28:31.204Z,3.50
2022-08-01T23:33:20.914Z,2.85
2022-08-01T23:38:15.847Z,1.20
2022-08-01T23:43:14.621Z,2.90
2022-08-01T23:48:08.513Z,1.35
2022-08-01T23:52:58.316Z,1.73
2022-08-01T23:57:51.784Z,1.45
